createdAt,value
2018-12-22T00:05:14.928Z,1.4
2018-12-22T00:15:18.423Z,1.3
2018-12-22T00:25:26.814Z,1
2018-12-22T00:35:27.416Z,1.3
2018-12-22T00:45:32.970Z,1.2
2018-12-22T00:55:32.528Z,0.9
2018-12-22T01:05:35.171Z,1.3
2018-12-22T01:15:41.509Z,0.8
2018-12-22T01:25:42.488Z,0.9
2018-12-22T01:35:49.590Z,0.6
2018-12-22T01:46:01.224Z,0.7
2018-12-22T01:56:03.925Z,1.1
2018-12-22T02:06:05.673Z,0.6
2018-12-22T02:16:15.007Z,0.4
2018-12-22T02:26:15.519Z,0.6
2018-12-22T02:36:15.949Z,0.5
2018-12-22T02:46:21.835Z,0.5
2018-12-22T02:56:27.130Z,0.4
2018-12-22T03:06:42.673Z,0.6
2018-12-22T03:16:42.570Z,0.3
2018-12-22T03:26:45.547Z,0.1
2018-12-22T03:36:47.233Z,0.1
2018-12-22T03:46:56.608Z,0.4
2018-12-22T03:56:56.836Z,0.3
2018-12-22T04:07:01.187Z,0.1
2018-12-22T04:17:11.957Z,0.3
2018-12-22T04:27:14.870Z,0.6
2018-12-22T04:37:19.433Z,0.2
2018-12-22T04:47:37.300Z,0.4
2018-12-22T04:57:40.036Z,0.7
2018-12-22T05:07:43.397Z,0.3
2018-12-22T05:17:47.650Z,0.7
2018-12-22T05:27:54.440Z,0.3
2018-12-22T05:38:01.777Z,0.3
2018-12-22T05:48:07.076Z,0.6
2018-12-22T05:58:10.058Z,0.6
2018-12-22T06:08:09.660Z,0.7
2018-12-22T06:18:12.528Z,0.7
2018-12-22T06:28:16.217Z,0.5
2018-12-22T06:38:19.114Z,0.7
2018-12-22T06:48:19.036Z,0.8
2018-12-22T06:58:21.567Z,0.7
2018-12-22T07:08:24.078Z,1
2018-12-22T07:18:27.840Z,0.9
2018-12-22T07:28:28.148Z,0.7
2018-12-22T07:38:31.751Z,0.8
2018-12-22T07:48:36.293Z,0.6
2018-12-22T07:58:36.970Z,0.5
2018-12-22T08:08:37.531Z,0.8
2018-12-22T08:18:37.653Z,0.9
2018-12-22T08:28:39.392Z,1
2018-12-22T08:38:42.477Z,0.6
2018-12-22T08:48:47.248Z,0.8
2018-12-22T08:58:47.157Z,0.8
2018-12-22T09:08:46.665Z,0.8
2018-12-22T09:18:51.931Z,1.4
2018-12-22T09:28:51.511Z,1.2
2018-12-22T09:38:52.610Z,1.2
2018-12-22T09:48:53.534Z,1.3
2018-12-22T09:58:54.025Z,1.2
2018-12-22T10:08:54.589Z,1.3
2018-12-22T10:18:55.641Z,0.7
2018-12-22T10:28:55.578Z,1
2018-12-22T10:38:55.319Z,1.5
2018-12-22T10:48:55.619Z,0.9
2018-12-22T10:58:56.436Z,1.2
2018-12-22T11:08:57.371Z,1
2018-12-22T11:18:56.810Z,0.9
2018-12-22T11:28:56.510Z,1.4
2018-12-22T11:39:05.263Z,1.1
2018-12-22T11:49:07.786Z,1.2
2018-12-22T11:59:09.771Z,1.6
2018-12-22T12:09:14.242Z,0.7
2018-12-22T12:19:13.897Z,0.6
2018-12-22T12:29:13.364Z,1.1
2018-12-22T12:39:13.820Z,0.9
2018-12-22T12:49:18.342Z,1.5
2018-12-22T12:59:18.866Z,2
2018-12-22T13:09:27.946Z,1.9
2018-12-22T13:19:32.734Z,1.6
2018-12-22T13:29:34.407Z,1.8
2018-12-22T13:39:42.071Z,1.5
2018-12-22T13:49:47.156Z,1.4
2018-12-22T13:59:49.981Z,1.2
2018-12-22T14:09:49.480Z,1.3
2018-12-22T14:19:49.207Z,1.6
2018-12-22T14:29:48.719Z,2
2018-12-22T14:39:58.003Z,1.5
2018-12-22T14:49:57.415Z,1.2
2018-12-22T14:59:58.245Z,2.2
2018-12-22T15:10:09.337Z,2.4
2018-12-22T15:20:08.994Z,1.8
2018-12-22T15:30:17.959Z,1.3
2018-12-22T15:40:26.331Z,1.8
2018-12-22T15:50:29.270Z,2
2018-12-22T16:00:32.753Z,1.4
2018-12-22T16:10:40.692Z,1.2
2018-12-22T16:20:42.417Z,1.8
2018-12-22T16:30:43.818Z,1
2018-12-22T16:40:43.393Z,1.6
2018-12-22T16:50:43.481Z,1.1
2018-12-22T17:00:42.956Z,1.6
2018-12-22T17:10:42.405Z,1.5
2018-12-22T17:20:41.864Z,1.8
2018-12-22T17:30:41.440Z,1.3
2018-12-22T17:40:51.802Z,1.2
2018-12-22T17:50:51.402Z,1.2
2018-12-22T18:00:53.356Z,3.5
2018-12-22T18:11:00.377Z,1.8
2018-12-22T18:21:00.404Z,1.9
2018-12-22T18:30:59.922Z,1.8
2018-12-22T18:41:08.889Z,2.2
2018-12-22T18:51:10.703Z,1.7
2018-12-22T19:01:10.269Z,2.1
2018-12-22T19:11:15.373Z,2.3
2018-12-22T19:21:14.831Z,2.4
2018-12-22T19:31:15.729Z,2.2
2018-12-22T19:41:24.241Z,1.9
2018-12-22T19:51:23.710Z,2.3
2018-12-22T20:01:23.279Z,2.1
2018-12-22T20:11:22.927Z,1.6
2018-12-22T20:21:24.207Z,1.6
2018-12-22T20:31:24.083Z,2.9
2018-12-22T20:41:26.696Z,1.5
2018-12-22T20:51:28.046Z,1.8
2018-12-22T21:01:28.064Z,1.5
2018-12-22T21:11:28.885Z,2
2018-12-22T21:21:28.339Z,1.7
2018-12-22T21:31:27.807Z,1.8
2018-12-22T21:41:30.510Z,1.9
2018-12-22T21:51:31.071Z,1.5
2018-12-22T22:01:34.671Z,1.5
2018-12-22T22:11:37.086Z,1.8
2018-12-22T22:21:36.761Z,1.4
2018-12-22T22:31:38.937Z,1.5
2018-12-22T22:41:38.378Z,0.9
2018-12-22T22:51:37.912Z,1
2018-12-22T23:01:37.345Z,1
2018-12-22T23:11:37.145Z,1
2018-12-22T23:21:37.002Z,1.2
2018-12-22T23:31:36.256Z,1.3
2018-12-22T23:41:35.825Z,1.1
2018-12-22T23:51:35.414Z,0.4
